sensor_id;sensor_type;location;lat;lon;timestamp;temperature;humidity
45060;DHT22;30799;49.060;9.312;2023-02-11T00:01:12;19.30;53.80
45060;DHT22;30799;49.060;9.312;2023-02-11T00:03:38;19.50;53.90
45060;DHT22;30799;49.060;9.312;2023-02-11T00:06:07;19.50;53.80
45060;DHT22;30799;49.060;9.312;2023-02-11T00:08:37;19.60;53.90
45060;DHT22;30799;49.060;9.312;2023-02-11T00:11:04;19.60;53.90
45060;DHT22;30799;49.060;9.312;2023-02-11T00:13:31;19.50;53.80
45060;DHT22;30799;49.060;9.312;2023-02-11T00:15:57;19.50;53.80
45060;DHT22;30799;49.060;9.312;2023-02-11T00:18:24;19.50;53.80
45060;DHT22;30799;49.060;9.312;2023-02-11T00:20:51;19.50;53.80
45060;DHT22;30799;49.060;9.312;2023-02-11T00:23:17;19.50;53.80
45060;DHT22;30799;49.060;9.312;2023-02-11T00:25:44;19.50;53.80
45060;DHT22;30799;49.060;9.312;2023-02-11T00:28:11;19.50;53.80
45060;DHT22;30799;49.060;9.312;2023-02-11T00:30:38;19.00;53.50
45060;DHT22;30799;49.060;9.312;2023-02-11T00:33:05;19.50;53.70
45060;DHT22;30799;49.060;9.312;2023-02-11T00:35:32;19.60;53.70
45060;DHT22;30799;49.060;9.312;2023-02-11T00:37:59;19.50;53.70
45060;DHT22;30799;49.060;9.312;2023-02-11T00:40:25;19.50;53.70
45060;DHT22;30799;49.060;9.312;2023-02-11T00:42:52;19.60;53.70
45060;DHT22;30799;49.060;9.312;2023-02-11T00:45:18;19.50;53.70
45060;DHT22;30799;49.060;9.312;2023-02-11T00:47:46;19.50;53.70
45060;DHT22;30799;49.060;9.312;2023-02-11T00:50:13;19.50;53.60
45060;DHT22;30799;49.060;9.312;2023-02-11T00:52:40;19.50;54.20
45060;DHT22;30799;49.060;9.312;2023-02-11T00:55:06;19.50;54.20
45060;DHT22;30799;49.060;9.312;2023-02-11T00:57:33;19.50;53.60
45060;DHT22;30799;49.060;9.312;2023-02-11T01:00:00;19.50;53.60
45060;DHT22;30799;49.060;9.312;2023-02-11T01:02:26;19.50;53.60
45060;DHT22;30799;49.060;9.312;2023-02-11T01:04:53;19.50;53.60
45060;DHT22;30799;49.060;9.312;2023-02-11T01:07:20;19.50;53.70
45060;DHT22;30799;49.060;9.312;2023-02-11T01:09:46;19.50;53.60
45060;DHT22;30799;49.060;9.312;2023-02-11T01:12:13;19.50;53.60
45060;DHT22;30799;49.060;9.312;2023-02-11T01:14:40;19.50;53.60
45060;DHT22;30799;49.060;9.312;2023-02-11T01:17:07;19.40;53.50
45060;DHT22;30799;49.060;9.312;2023-02-11T01:19:35;19.50;53.60
45060;DHT22;30799;49.060;9.312;2023-02-11T01:22:03;19.40;53.50
45060;DHT22;30799;49.060;9.312;2023-02-11T01:24:30;19.50;53.60
45060;DHT22;30799;49.060;9.312;2023-02-11T01:26:57;19.50;53.50
45060;DHT22;30799;49.060;9.312;2023-02-11T01:29:23;19.50;53.60
45060;DHT22;30799;49.060;9.312;2023-02-11T01:31:50;19.50;53.60
45060;DHT22;30799;49.060;9.312;2023-02-11T01:34:17;19.50;53.60
45060;DHT22;30799;49.060;9.312;2023-02-11T01:36:44;19.50;53.50
45060;DHT22;30799;49.060;9.312;2023-02-11T01:39:11;19.50;53.50
45060;DHT22;30799;49.060;9.312;2023-02-11T01:41:37;19.60;53.60
45060;DHT22;30799;49.060;9.312;2023-02-11T01:44:24;19.50;53.50
45060;DHT22;30799;49.060;9.312;2023-02-11T01:46:51;19.50;53.60
45060;DHT22;30799;49.060;9.312;2023-02-11T01:49:22;19.50;53.50
45060;DHT22;30799;49.060;9.312;2023-02-11T01:51:58;19.30;53.40
45060;DHT22;30799;49.060;9.312;2023-02-11T01:54:32;19.40;53.40
45060;DHT22;30799;49.060;9.312;2023-02-11T01:57:21;19.50;53.40
45060;DHT22;30799;49.060;9.312;2023-02-11T02:08:16;19.50;53.40
45060;DHT22;30799;49.060;9.312;2023-02-11T02:10:47;19.50;53.40
45060;DHT22;30799;49.060;9.312;2023-02-11T02:13:14;19.50;53.40
45060;DHT22;30799;49.060;9.312;2023-02-11T02:15:47;19.50;53.40
45060;DHT22;30799;49.060;9.312;2023-02-11T02:36:08;19.50;53.30
45060;DHT22;30799;49.060;9.312;2023-02-11T02:39:26;19.50;53.30
45060;DHT22;30799;49.060;9.312;2023-02-11T02:41:34;19.50;53.20
45060;DHT22;30799;49.060;9.312;2023-02-11T02:44:01;19.30;53.10
45060;DHT22;30799;49.060;9.312;2023-02-11T02:46:31;19.50;53.30
45060;DHT22;30799;49.060;9.312;2023-02-11T02:48:59;19.40;53.20
45060;DHT22;30799;49.060;9.312;2023-02-11T02:54:25;19.40;53.20
45060;DHT22;30799;49.060;9.312;2023-02-11T03:02:26;19.50;53.20
45060;DHT22;30799;49.060;9.312;2023-02-11T03:10:26;19.40;53.10
45060;DHT22;30799;49.060;9.312;2023-02-11T03:12:55;19.40;53.10
45060;DHT22;30799;49.060;9.312;2023-02-11T03:15:25;19.40;53.10
45060;DHT22;30799;49.060;9.312;2023-02-11T03:17:55;19.40;53.10
45060;DHT22;30799;49.060;9.312;2023-02-11T03:20:24;19.40;53.70
45060;DHT22;30799;49.060;9.312;2023-02-11T03:25:26;19.80;53.30
45060;DHT22;30799;49.060;9.312;2023-02-11T03:28:05;19.30;53.00
45060;DHT22;30799;49.060;9.312;2023-02-11T03:30:40;19.40;53.10
45060;DHT22;30799;49.060;9.312;2023-02-11T03:33:24;19.40;53.00
45060;DHT22;30799;49.060;9.312;2023-02-11T03:36:02;19.40;53.10
45060;DHT22;30799;49.060;9.312;2023-02-11T03:38:32;19.40;53.00
45060;DHT22;30799;49.060;9.312;2023-02-11T03:41:01;19.40;53.00
45060;DHT22;30799;49.060;9.312;2023-02-11T03:43:36;19.40;52.90
45060;DHT22;30799;49.060;9.312;2023-02-11T03:46:06;19.30;53.00
45060;DHT22;30799;49.060;9.312;2023-02-11T03:48:37;19.40;53.00
45060;DHT22;30799;49.060;9.312;2023-02-11T03:51:06;19.40;53.60
45060;DHT22;30799;49.060;9.312;2023-02-11T03:53:35;19.40;52.90
45060;DHT22;30799;49.060;9.312;2023-02-11T03:56:07;19.40;52.90
45060;DHT22;30799;49.060;9.312;2023-02-11T03:58:34;19.40;53.00
45060;DHT22;30799;49.060;9.312;2023-02-11T04:01:01;19.40;52.90
45060;DHT22;30799;49.060;9.312;2023-02-11T04:03:28;19.40;52.90
45060;DHT22;30799;49.060;9.312;2023-02-11T04:05:55;19.30;52.90
45060;DHT22;30799;49.060;9.312;2023-02-11T04:08:21;19.40;52.90
45060;DHT22;30799;49.060;9.312;2023-02-11T04:10:48;19.40;52.90
45060;DHT22;30799;49.060;9.312;2023-02-11T04:13:14;19.40;52.90
45060;DHT22;30799;49.060;9.312;2023-02-11T04:15:41;19.40;52.90
45060;DHT22;30799;49.060;9.312;2023-02-11T04:18:08;19.40;52.90
45060;DHT22;30799;49.060;9.312;2023-02-11T04:20:34;19.40;52.90
45060;DHT22;30799;49.060;9.312;2023-02-11T04:23:01;19.20;52.70
45060;DHT22;30799;49.060;9.312;2023-02-11T04:25:27;19.60;52.90
45060;DHT22;30799;49.060;9.312;2023-02-11T04:27:54;19.40;52.90
45060;DHT22;30799;49.060;9.312;2023-02-11T04:30:21;19.40;52.80
45060;DHT22;30799;49.060;9.312;2023-02-11T04:32:47;19.40;52.80
45060;DHT22;30799;49.060;9.312;2023-02-11T04:35:14;19.40;52.90
45060;DHT22;30799;49.060;9.312;2023-02-11T04:37:40;19.40;52.80
45060;DHT22;30799;49.060;9.312;2023-02-11T04:40:08;19.40;52.80
45060;DHT22;30799;49.060;9.312;2023-02-11T04:42:34;19.40;52.80
45060;DHT22;30799;49.060;9.312;2023-02-11T04:45:01;19.40;52.80
45060;DHT22;30799;49.060;9.312;2023-02-11T04:47:28;19.40;52.80
45060;DHT22;30799;49.060;9.312;2023-02-11T04:49:55;19.40;52.70
45060;DHT22;30799;49.060;9.312;2023-02-11T04:52:21;19.40;52.70
45060;DHT22;30799;49.060;9.312;2023-02-11T04:54:48;19.40;52.80
45060;DHT22;30799;49.060;9.312;2023-02-11T04:57:15;19.40;52.70
45060;DHT22;30799;49.060;9.312;2023-02-11T04:59:41;19.40;52.70
45060;DHT22;30799;49.060;9.312;2023-02-11T05:02:08;19.40;52.70
45060;DHT22;30799;49.060;9.312;2023-02-11T05:04:35;19.40;52.70
45060;DHT22;30799;49.060;9.312;2023-02-11T05:07:01;19.40;52.70
45060;DHT22;30799;49.060;9.312;2023-02-11T05:09:28;19.40;52.70
45060;DHT22;30799;49.060;9.312;2023-02-11T05:11:55;19.40;52.70
45060;DHT22;30799;49.060;9.312;2023-02-11T05:14:21;19.40;52.70
45060;DHT22;30799;49.060;9.312;2023-02-11T05:16:48;19.40;52.70
45060;DHT22;30799;49.060;9.312;2023-02-11T05:19:14;19.40;52.60
45060;DHT22;30799;49.060;9.312;2023-02-11T05:21:41;19.40;52.60
45060;DHT22;30799;49.060;9.312;2023-02-11T05:24:27;19.40;52.60
45060;DHT22;30799;49.060;9.312;2023-02-11T05:26:53;19.40;52.60
45060;DHT22;30799;49.060;9.312;2023-02-11T05:29:20;19.40;52.60
45060;DHT22;30799;49.060;9.312;2023-02-11T05:31:46;19.40;52.50
45060;DHT22;30799;49.060;9.312;2023-02-11T05:34:13;19.40;52.60
45060;DHT22;30799;49.060;9.312;2023-02-11T05:36:40;19.40;52.60
45060;DHT22;30799;49.060;9.312;2023-02-11T05:39:06;19.40;52.50
45060;DHT22;30799;49.060;9.312;2023-02-11T05:41:33;19.30;53.10
45060;DHT22;30799;49.060;9.312;2023-02-11T05:44:00;19.40;52.50
45060;DHT22;30799;49.060;9.312;2023-02-11T05:46:27;19.40;52.50
45060;DHT22;30799;49.060;9.312;2023-02-11T05:48:53;19.40;52.50
45060;DHT22;30799;49.060;9.312;2023-02-11T05:51:22;19.40;52.50
45060;DHT22;30799;49.060;9.312;2023-02-11T05:53:50;19.40;52.50
45060;DHT22;30799;49.060;9.312;2023-02-11T05:56:17;19.40;52.50
45060;DHT22;30799;49.060;9.312;2023-02-11T05:58:43;19.40;52.50
45060;DHT22;30799;49.060;9.312;2023-02-11T06:01:10;19.40;52.50
45060;DHT22;30799;49.060;9.312;2023-02-11T06:03:37;19.40;52.50
45060;DHT22;30799;49.060;9.312;2023-02-11T06:06:04;19.40;52.50
45060;DHT22;30799;49.060;9.312;2023-02-11T06:08:30;19.40;52.50
45060;DHT22;30799;49.060;9.312;2023-02-11T06:10:57;19.40;52.50
45060;DHT22;30799;49.060;9.312;2023-02-11T06:13:24;19.40;52.50
45060;DHT22;30799;49.060;9.312;2023-02-11T06:16:01;19.40;52.50
45060;DHT22;30799;49.060;9.312;2023-02-11T06:18:28;19.30;52.40
45060;DHT22;30799;49.060;9.312;2023-02-11T06:20:55;19.40;52.40
45060;DHT22;30799;49.060;9.312;2023-02-11T06:23:22;19.40;52.40
45060;DHT22;30799;49.060;9.312;2023-02-11T06:25:49;19.40;52.40
45060;DHT22;30799;49.060;9.312;2023-02-11T06:28:16;19.40;52.40
45060;DHT22;30799;49.060;9.312;2023-02-11T06:30:43;19.40;52.40
45060;DHT22;30799;49.060;9.312;2023-02-11T06:33:09;19.40;52.40
45060;DHT22;30799;49.060;9.312;2023-02-11T06:35:39;19.40;52.40
45060;DHT22;30799;49.060;9.312;2023-02-11T06:38:06;19.40;52.40
45060;DHT22;30799;49.060;9.312;2023-02-11T06:40:33;19.40;52.40
45060;DHT22;30799;49.060;9.312;2023-02-11T06:42:59;19.40;52.40
45060;DHT22;30799;49.060;9.312;2023-02-11T06:45:26;19.40;52.90
45060;DHT22;30799;49.060;9.312;2023-02-11T06:47:53;19.40;52.30
45060;DHT22;30799;49.060;9.312;2023-02-11T06:50:19;19.30;52.30
45060;DHT22;30799;49.060;9.312;2023-02-11T06:52:46;19.40;52.30
45060;DHT22;30799;49.060;9.312;2023-02-11T06:55:13;19.40;52.30
45060;DHT22;30799;49.060;9.312;2023-02-11T06:57:40;19.30;52.30
45060;DHT22;30799;49.060;9.312;2023-02-11T07:00:07;19.30;52.20
45060;DHT22;30799;49.060;9.312;2023-02-11T07:02:34;19.30;52.30
45060;DHT22;30799;49.060;9.312;2023-02-11T07:05:01;19.50;52.30
45060;DHT22;30799;49.060;9.312;2023-02-11T07:07:28;19.30;52.20
45060;DHT22;30799;49.060;9.312;2023-02-11T07:09:57;19.40;52.30
45060;DHT22;30799;49.060;9.312;2023-02-11T07:12:24;19.40;52.20
45060;DHT22;30799;49.060;9.312;2023-02-11T07:14:51;19.40;52.30
45060;DHT22;30799;49.060;9.312;2023-02-11T07:17:18;19.30;52.20
45060;DHT22;30799;49.060;9.312;2023-02-11T07:19:44;19.30;52.20
45060;DHT22;30799;49.060;9.312;2023-02-11T07:22:11;19.40;52.30
45060;DHT22;30799;49.060;9.312;2023-02-11T07:24:38;19.30;52.10
45060;DHT22;30799;49.060;9.312;2023-02-11T07:27:04;19.30;52.20
45060;DHT22;30799;49.060;9.312;2023-02-11T07:29:31;19.40;52.20
45060;DHT22;30799;49.060;9.312;2023-02-11T07:31:58;19.40;52.20
45060;DHT22;30799;49.060;9.312;2023-02-11T07:34:25;19.30;52.10
45060;DHT22;30799;49.060;9.312;2023-02-11T07:36:51;19.40;52.00
45060;DHT22;30799;49.060;9.312;2023-02-11T07:39:18;19.40;52.00
45060;DHT22;30799;49.060;9.312;2023-02-11T07:41:47;19.30;52.00
45060;DHT22;30799;49.060;9.312;2023-02-11T07:44:14;19.40;52.00
45060;DHT22;30799;49.060;9.312;2023-02-11T07:46:41;19.30;52.00
45060;DHT22;30799;49.060;9.312;2023-02-11T07:49:10;19.30;52.00
45060;DHT22;30799;49.060;9.312;2023-02-11T07:51:37;19.40;52.00
45060;DHT22;30799;49.060;9.312;2023-02-11T07:54:04;19.40;52.00
45060;DHT22;30799;49.060;9.312;2023-02-11T07:56:32;19.30;52.00
45060;DHT22;30799;49.060;9.312;2023-02-11T07:59:00;19.30;52.00
45060;DHT22;30799;49.060;9.312;2023-02-11T08:01:29;19.40;52.00
45060;DHT22;30799;49.060;9.312;2023-02-11T08:03:57;19.30;52.00
45060;DHT22;30799;49.060;9.312;2023-02-11T08:06:26;19.30;52.00
45060;DHT22;30799;49.060;9.312;2023-02-11T08:08:53;19.30;52.00
45060;DHT22;30799;49.060;9.312;2023-02-11T08:11:25;19.30;52.00
45060;DHT22;30799;49.060;9.312;2023-02-11T08:13:53;19.40;52.00
45060;DHT22;30799;49.060;9.312;2023-02-11T08:16:24;19.30;52.00
45060;DHT22;30799;49.060;9.312;2023-02-11T08:18:54;19.40;52.00
45060;DHT22;30799;49.060;9.312;2023-02-11T08:21:22;19.40;52.00
45060;DHT22;30799;49.060;9.312;2023-02-11T08:23:49;19.40;52.00
45060;DHT22;30799;49.060;9.312;2023-02-11T08:26:18;19.30;52.00
45060;DHT22;30799;49.060;9.312;2023-02-11T08:28:47;19.30;52.00
45060;DHT22;30799;49.060;9.312;2023-02-11T08:31:26;19.30;52.00
45060;DHT22;30799;49.060;9.312;2023-02-11T08:33:53;19.40;52.00
45060;DHT22;30799;49.060;9.312;2023-02-11T08:36:25;19.40;52.00
45060;DHT22;30799;49.060;9.312;2023-02-11T08:38:54;19.30;52.60
45060;DHT22;30799;49.060;9.312;2023-02-11T08:41:37;19.30;52.00
45060;DHT22;30799;49.060;9.312;2023-02-11T08:44:04;19.30;51.90
45060;DHT22;30799;49.060;9.312;2023-02-11T08:46:31;19.40;51.90
45060;DHT22;30799;49.060;9.312;2023-02-11T08:48:57;19.40;52.00
45060;DHT22;30799;49.060;9.312;2023-02-11T08:51:26;19.30;51.90
45060;DHT22;30799;49.060;9.312;2023-02-11T08:53:53;19.40;51.90
45060;DHT22;30799;49.060;9.312;2023-02-11T08:56:21;19.30;51.90
45060;DHT22;30799;49.060;9.312;2023-02-11T08:58:49;19.40;51.90
45060;DHT22;30799;49.060;9.312;2023-02-11T09:01:19;19.30;51.80
45060;DHT22;30799;49.060;9.312;2023-02-11T09:03:48;19.30;51.90
45060;DHT22;30799;49.060;9.312;2023-02-11T09:06:15;19.30;51.80
45060;DHT22;30799;49.060;9.312;2023-02-11T09:08:46;19.30;51.80
45060;DHT22;30799;49.060;9.312;2023-02-11T09:11:15;19.40;51.90
45060;DHT22;30799;49.060;9.312;2023-02-11T09:13:43;19.40;51.90
45060;DHT22;30799;49.060;9.312;2023-02-11T09:16:22;19.30;52.40
45060;DHT22;30799;49.060;9.312;2023-02-11T09:18:50;19.30;51.90
45060;DHT22;30799;49.060;9.312;2023-02-11T09:21:17;19.40;51.80
45060;DHT22;30799;49.060;9.312;2023-02-11T09:23:45;19.40;51.80
45060;DHT22;30799;49.060;9.312;2023-02-11T09:26:19;19.30;51.80
45060;DHT22;30799;49.060;9.312;2023-02-11T09:28:46;19.30;51.80
45060;DHT22;30799;49.060;9.312;2023-02-11T09:31:16;19.40;51.80
45060;DHT22;30799;49.060;9.312;2023-02-11T09:33:44;19.30;51.80
45060;DHT22;30799;49.060;9.312;2023-02-11T09:36:18;19.40;51.80
45060;DHT22;30799;49.060;9.312;2023-02-11T09:38:45;19.30;51.80
45060;DHT22;30799;49.060;9.312;2023-02-11T09:44:00;19.30;51.90
45060;DHT22;30799;49.060;9.312;2023-02-11T09:46:33;19.40;51.80
45060;DHT22;30799;49.060;9.312;2023-02-11T09:49:02;19.30;51.70
45060;DHT22;30799;49.060;9.312;2023-02-11T09:51:43;19.30;51.70
45060;DHT22;30799;49.060;9.312;2023-02-11T09:54:35;19.30;51.70
45060;DHT22;30799;49.060;9.312;2023-02-11T09:57:03;19.60;51.90
45060;DHT22;30799;49.060;9.312;2023-02-11T09:59:31;19.30;51.70
45060;DHT22;30799;49.060;9.312;2023-02-11T10:02:03;19.40;51.70
45060;DHT22;30799;49.060;9.312;2023-02-11T10:07:16;19.40;51.80
45060;DHT22;30799;49.060;9.312;2023-02-11T10:15:47;19.40;51.70
45060;DHT22;30799;49.060;9.312;2023-02-11T10:18:39;19.40;51.70
45060;DHT22;30799;49.060;9.312;2023-02-11T10:21:37;19.30;51.70
45060;DHT22;30799;49.060;9.312;2023-02-11T10:24:11;19.40;51.70
45060;DHT22;30799;49.060;9.312;2023-02-11T10:26:39;19.30;51.80
45060;DHT22;30799;49.060;9.312;2023-02-11T10:31:46;19.30;51.70
45060;DHT22;30799;49.060;9.312;2023-02-11T10:34:14;19.30;51.60
45060;DHT22;30799;49.060;9.312;2023-02-11T10:36:42;19.30;51.60
45060;DHT22;30799;49.060;9.312;2023-02-11T10:39:21;19.40;51.60
45060;DHT22;30799;49.060;9.312;2023-02-11T10:44:38;19.40;51.70
45060;DHT22;30799;49.060;9.312;2023-02-11T10:47:14;19.30;51.60
45060;DHT22;30799;49.060;9.312;2023-02-11T10:49:44;19.30;51.70
45060;DHT22;30799;49.060;9.312;2023-02-11T10:55:24;19.30;51.60
45060;DHT22;30799;49.060;9.312;2023-02-11T10:57:57;19.30;51.70
45060;DHT22;30799;49.060;9.312;2023-02-11T11:00:40;19.30;51.60
45060;DHT22;30799;49.060;9.312;2023-02-11T11:03:19;19.30;51.60
45060;DHT22;30799;49.060;9.312;2023-02-11T11:05:55;19.30;51.70
45060;DHT22;30799;49.060;9.312;2023-02-11T11:11:09;19.30;51.60
45060;DHT22;30799;49.060;9.312;2023-02-11T11:14:01;19.30;51.60
45060;DHT22;30799;49.060;9.312;2023-02-11T11:21:40;19.20;51.50
45060;DHT22;30799;49.060;9.312;2023-02-11T11:24:26;19.30;51.50
45060;DHT22;30799;49.060;9.312;2023-02-11T11:26:57;19.40;51.60
45060;DHT22;30799;49.060;9.312;2023-02-11T11:29:37;19.40;51.50
45060;DHT22;30799;49.060;9.312;2023-02-11T11:32:12;19.20;51.60
45060;DHT22;30799;49.060;9.312;2023-02-11T11:34:42;19.30;51.60
45060;DHT22;30799;49.060;9.312;2023-02-11T11:37:33;19.30;51.50
45060;DHT22;30799;49.060;9.312;2023-02-11T11:40:21;19.30;51.50
45060;DHT22;30799;49.060;9.312;2023-02-11T11:45:38;19.30;51.50
45060;DHT22;30799;49.060;9.312;2023-02-11T11:48:37;19.30;51.40
45060;DHT22;30799;49.060;9.312;2023-02-11T11:51:09;19.30;51.50
45060;DHT22;30799;49.060;9.312;2023-02-11T11:53:47;19.30;51.40
45060;DHT22;30799;49.060;9.312;2023-02-11T11:56:29;19.20;51.50
45060;DHT22;30799;49.060;9.312;2023-02-11T11:59:00;19.20;51.30
45060;DHT22;30799;49.060;9.312;2023-02-11T12:07:45;19.70;51.50
45060;DHT22;30799;49.060;9.312;2023-02-11T12:13:02;19.30;51.30
45060;DHT22;30799;49.060;9.312;2023-02-11T12:15:40;19.30;51.30
45060;DHT22;30799;49.060;9.312;2023-02-11T12:26:20;19.30;51.10
45060;DHT22;30799;49.060;9.312;2023-02-11T12:29:02;19.20;51.10
45060;DHT22;30799;49.060;9.312;2023-02-11T12:31:41;19.10;51.20
45060;DHT22;30799;49.060;9.312;2023-02-11T12:35:22;19.10;51.10
45060;DHT22;30799;49.060;9.312;2023-02-11T12:37:36;19.30;51.10
45060;DHT22;30799;49.060;9.312;2023-02-11T12:46:25;19.20;51.10
45060;DHT22;30799;49.060;9.312;2023-02-11T12:49:10;19.30;51.20
45060;DHT22;30799;49.060;9.312;2023-02-11T12:54:46;19.30;51.10
45060;DHT22;30799;49.060;9.312;2023-02-11T12:57:18;19.30;51.00
45060;DHT22;30799;49.060;9.312;2023-02-11T13:05:27;19.40;51.10
45060;DHT22;30799;49.060;9.312;2023-02-11T13:08:02;19.10;51.00
45060;DHT22;30799;49.060;9.312;2023-02-11T13:10:35;19.30;51.00
45060;DHT22;30799;49.060;9.312;2023-02-11T13:16:05;19.30;51.10
45060;DHT22;30799;49.060;9.312;2023-02-11T13:24:52;19.30;51.00
45060;DHT22;30799;49.060;9.312;2023-02-11T13:30:33;19.30;51.00
45060;DHT22;30799;49.060;9.312;2023-02-11T13:33:02;19.10;51.00
45060;DHT22;30799;49.060;9.312;2023-02-11T13:38:19;19.30;50.90
45060;DHT22;30799;49.060;9.312;2023-02-11T13:44:16;19.30;50.90
45060;DHT22;30799;49.060;9.312;2023-02-11T13:51:58;19.30;51.00
45060;DHT22;30799;49.060;9.312;2023-02-11T13:54:33;19.30;50.90
45060;DHT22;30799;49.060;9.312;2023-02-11T13:57:24;19.30;50.90
45060;DHT22;30799;49.060;9.312;2023-02-11T13:59:57;19.20;50.90
45060;DHT22;30799;49.060;9.312;2023-02-11T14:05:25;19.20;50.80
45060;DHT22;30799;49.060;9.312;2023-02-11T14:11:03;19.30;50.80
45060;DHT22;30799;49.060;9.312;2023-02-11T14:22:21;19.20;50.80
45060;DHT22;30799;49.060;9.312;2023-02-11T14:25:00;19.30;50.70
45060;DHT22;30799;49.060;9.312;2023-02-11T14:32:57;19.40;50.70
45060;DHT22;30799;49.060;9.312;2023-02-11T14:35:53;19.20;50.70
45060;DHT22;30799;49.060;9.312;2023-02-11T14:39:10;19.40;50.70
45060;DHT22;30799;49.060;9.312;2023-02-11T14:41:43;19.40;50.70
45060;DHT22;30799;49.060;9.312;2023-02-11T14:44:30;19.30;50.60
45060;DHT22;30799;49.060;9.312;2023-02-11T14:46:58;19.40;50.80
45060;DHT22;30799;49.060;9.312;2023-02-11T14:49:35;19.30;50.60
45060;DHT22;30799;49.060;9.312;2023-02-11T14:52:06;19.40;50.60
45060;DHT22;30799;49.060;9.312;2023-02-11T14:54:39;19.20;50.60
45060;DHT22;30799;49.060;9.312;2023-02-11T14:57:18;19.30;50.60
45060;DHT22;30799;49.060;9.312;2023-02-11T14:59:57;19.30;50.60
45060;DHT22;30799;49.060;9.312;2023-02-11T15:02:37;19.30;50.60
45060;DHT22;30799;49.060;9.312;2023-02-11T15:05:24;19.50;50.80
45060;DHT22;30799;49.060;9.312;2023-02-11T15:07:59;19.20;50.60
45060;DHT22;30799;49.060;9.312;2023-02-11T15:10:34;19.30;50.50
45060;DHT22;30799;49.060;9.312;2023-02-11T15:13:02;19.30;50.60
45060;DHT22;30799;49.060;9.312;2023-02-11T15:15:30;19.30;50.50
45060;DHT22;30799;49.060;9.312;2023-02-11T15:18:00;19.30;50.50
45060;DHT22;30799;49.060;9.312;2023-02-11T15:20:30;19.30;50.60
45060;DHT22;30799;49.060;9.312;2023-02-11T15:23:02;19.20;50.50
45060;DHT22;30799;49.060;9.312;2023-02-11T15:25:29;19.30;50.50
45060;DHT22;30799;49.060;9.312;2023-02-11T15:27:59;19.40;50.50
45060;DHT22;30799;49.060;9.312;2023-02-11T15:30:32;19.40;50.50
45060;DHT22;30799;49.060;9.312;2023-02-11T15:33:03;19.40;50.60
45060;DHT22;30799;49.060;9.312;2023-02-11T15:35:37;19.40;50.60
45060;DHT22;30799;49.060;9.312;2023-02-11T15:38:04;19.30;50.60
45060;DHT22;30799;49.060;9.312;2023-02-11T15:40:34;19.30;50.60
45060;DHT22;30799;49.060;9.312;2023-02-11T15:43:09;19.30;50.60
45060;DHT22;30799;49.060;9.312;2023-02-11T15:45:38;19.30;50.60
45060;DHT22;30799;49.060;9.312;2023-02-11T15:50:40;19.30;50.70
45060;DHT22;30799;49.060;9.312;2023-02-11T15:56:00;19.30;50.70
45060;DHT22;30799;49.060;9.312;2023-02-11T15:58:28;19.20;50.70
45060;DHT22;30799;49.060;9.312;2023-02-11T16:00:55;19.30;50.60
45060;DHT22;30799;49.060;9.312;2023-02-11T16:03:27;19.30;50.60
45060;DHT22;30799;49.060;9.312;2023-02-11T16:06:18;19.30;50.60
45060;DHT22;30799;49.060;9.312;2023-02-11T16:11:53;19.30;50.60
45060;DHT22;30799;49.060;9.312;2023-02-11T16:14:29;19.30;50.60
45060;DHT22;30799;49.060;9.312;2023-02-11T16:17:06;19.30;50.60
45060;DHT22;30799;49.060;9.312;2023-02-11T16:19:35;19.30;50.70
45060;DHT22;30799;49.060;9.312;2023-02-11T16:22:10;19.30;50.70
45060;DHT22;30799;49.060;9.312;2023-02-11T16:24:39;19.30;50.70
45060;DHT22;30799;49.060;9.312;2023-02-11T16:27:17;19.30;50.60
45060;DHT22;30799;49.060;9.312;2023-02-11T16:29:47;19.30;50.70
45060;DHT22;30799;49.060;9.312;2023-02-11T16:32:25;19.20;50.60
45060;DHT22;30799;49.060;9.312;2023-02-11T16:34:54;19.30;50.70
45060;DHT22;30799;49.060;9.312;2023-02-11T16:37:24;19.30;50.70
45060;DHT22;30799;49.060;9.312;2023-02-11T16:39:55;19.30;50.70
45060;DHT22;30799;49.060;9.312;2023-02-11T16:42:21;19.20;50.70
45060;DHT22;30799;49.060;9.312;2023-02-11T16:44:48;19.30;50.70
45060;DHT22;30799;49.060;9.312;2023-02-11T16:47:26;19.30;50.70
45060;DHT22;30799;49.060;9.312;2023-02-11T16:49:54;19.70;50.90
45060;DHT22;30799;49.060;9.312;2023-02-11T16:52:21;19.30;50.70
45060;DHT22;30799;49.060;9.312;2023-02-11T16:54:48;19.30;50.70
45060;DHT22;30799;49.060;9.312;2023-02-11T16:57:20;19.30;50.70
45060;DHT22;30799;49.060;9.312;2023-02-11T16:59:48;19.20;50.70
45060;DHT22;30799;49.060;9.312;2023-02-11T17:02:19;19.30;50.70
45060;DHT22;30799;49.060;9.312;2023-02-11T17:04:51;19.10;50.70
45060;DHT22;30799;49.060;9.312;2023-02-11T17:07:18;19.30;50.70
45060;DHT22;30799;49.060;9.312;2023-02-11T17:09:44;19.30;50.70
45060;DHT22;30799;49.060;9.312;2023-02-11T17:12:11;19.30;50.70
45060;DHT22;30799;49.060;9.312;2023-02-11T17:14:37;19.30;50.70
45060;DHT22;30799;49.060;9.312;2023-02-11T17:17:04;19.30;50.70
45060;DHT22;30799;49.060;9.312;2023-02-11T17:19:31;19.30;50.80
45060;DHT22;30799;49.060;9.312;2023-02-11T17:21:57;19.20;50.70
45060;DHT22;30799;49.060;9.312;2023-02-11T17:24:24;19.30;50.70
45060;DHT22;30799;49.060;9.312;2023-02-11T17:26:50;19.30;50.70
45060;DHT22;30799;49.060;9.312;2023-02-11T17:29:20;19.30;50.70
45060;DHT22;30799;49.060;9.312;2023-02-11T17:31:47;19.30;50.80
45060;DHT22;30799;49.060;9.312;2023-02-11T17:34:16;19.20;50.70
45060;DHT22;30799;49.060;9.312;2023-02-11T17:36:43;19.20;50.80
45060;DHT22;30799;49.060;9.312;2023-02-11T17:39:10;19.30;50.80
45060;DHT22;30799;49.060;9.312;2023-02-11T17:41:37;19.30;50.80
45060;DHT22;30799;49.060;9.312;2023-02-11T17:44:05;18.90;50.60
45060;DHT22;30799;49.060;9.312;2023-02-11T17:46:33;19.30;50.80
45060;DHT22;30799;49.060;9.312;2023-02-11T17:49:01;19.20;50.80
45060;DHT22;30799;49.060;9.312;2023-02-11T17:51:31;19.30;50.80
45060;DHT22;30799;49.060;9.312;2023-02-11T17:54:00;19.20;50.80
45060;DHT22;30799;49.060;9.312;2023-02-11T17:56:27;19.20;50.80
45060;DHT22;30799;49.060;9.312;2023-02-11T17:58:56;19.20;50.80
45060;DHT22;30799;49.060;9.312;2023-02-11T18:01:26;19.20;50.70
45060;DHT22;30799;49.060;9.312;2023-02-11T18:03:53;19.20;50.80
45060;DHT22;30799;49.060;9.312;2023-02-11T18:06:19;19.30;50.80
45060;DHT22;30799;49.060;9.312;2023-02-11T18:08:47;19.30;50.80
45060;DHT22;30799;49.060;9.312;2023-02-11T18:11:14;19.20;50.70
45060;DHT22;30799;49.060;9.312;2023-02-11T18:13:42;19.20;50.70
45060;DHT22;30799;49.060;9.312;2023-02-11T18:16:09;19.00;50.60
45060;DHT22;30799;49.060;9.312;2023-02-11T18:18:41;19.20;50.70
45060;DHT22;30799;49.060;9.312;2023-02-11T18:21:15;19.20;50.60
45060;DHT22;30799;49.060;9.312;2023-02-11T18:23:43;19.20;50.70
45060;DHT22;30799;49.060;9.312;2023-02-11T18:26:12;19.20;50.60
45060;DHT22;30799;49.060;9.312;2023-02-11T18:28:39;19.20;50.60